Judi M. — WCX8376 — position and weather

sailwx.info

Track history (hours):
 
Tides and Currents Weather Stations Pressure Air Temp Water Temp Dewpoint Dewpoint Depression Visibility Wind Speed Wind Dir Waves Ship Positions

Judi M.

Owner: MANKE TUG & BARGE CO INC, SHELTON, WA. More information available from US FCC via Universal Licensing System and Coast Guard Vessel Documentation Center.

Last reported at 2017-Aug-17 09:53 UTC. Time now 2017-Aug-21 21:43 UTC.
Position N 47°34' W 122°22'.

Length 29 m; draft 4 m.

Type: Tow > 200 m length. MMSI: 366740920.

Date/timePositionNaut miles runAvg speedWind from/ knotsBaromVisibWave heightAir tempDewpointWater temp
2017-Aug-17 09:53N 47°34' W 122°22'1 1.9
2017-Aug-17 09:31N 47°35' W 122°22'1 2.9
2017-Aug-17 09:00N 47°36' W 122°23'3 6.2
2017-Aug-17 08:31N 47°38' W 122°27'3 6.0
2017-Aug-17 08:01N 47°41' W 122°28'3 5.9
2017-Aug-17 07:31N 47°44' W 122°28'3 6.0
2017-Aug-17 07:00N 47°47' W 122°28'3 5.8
2017-Aug-17 06:31N 47°50' W 122°29'3 6.0
2017-Aug-17 06:01N 47°53' W 122°29'3 6.0
2017-Aug-17 05:31N 47°55' W 122°31'3 6.6
2017-Aug-17 05:00N 47°57' W 122°35'3 6.3
2017-Aug-17 04:30N 48°00' W 122°38'5 6.3
2017-Aug-17 03:47N 48°04' W 122°40'2 6.7
2017-Aug-17 03:29N 48°06' W 122°41'5 5.3
2017-Aug-17 02:35N 48°06' W 122°48'0 0.0
2017-Aug-17 01:25N 48°06' W 122°48'3 0.2
2017-Aug-16 08:22N 48°07' W 122°43'3 8.0
2017-Aug-16 08:00N 48°06' W 122°39'4 8.8
2017-Aug-16 07:30N 48°02' W 122°37'4 7.7
2017-Aug-16 07:00N 47°59' W 122°35'4 8.4
2017-Aug-16 06:31N 47°56' W 122°30'4 7.2
2017-Aug-16 06:00N 47°53' W 122°28'4 7.6
2017-Aug-16 05:31N 47°49' W 122°26'4 7.7
2017-Aug-16 05:01N 47°45' W 122°25'4 7.5
2017-Aug-16 04:30N 47°42' W 122°27'3 6.6
2017-Aug-16 04:01N 47°38' W 122°26'4 7.4
2017-Aug-16 03:31N 47°36' W 122°22'  
2017-Aug-11 08:44N 47°34' W 122°22'0 0.0
2017-Aug-11 08:30N 47°34' W 122°22'1 2.4
2017-Aug-11 08:00N 47°36' W 122°22'2 4.7
2017-Aug-11 07:30N 47°37' W 122°25'3 5.6
2017-Aug-11 07:00N 47°39' W 122°28'3 5.5
2017-Aug-11 06:30N 47°42' W 122°28'3 5.6
2017-Aug-11 06:00N 47°44' W 122°27'3 5.8
2017-Aug-11 05:30N 47°47' W 122°28'3 6.3
2017-Aug-11 05:00N 47°50' W 122°28'3 5.5
2017-Aug-11 04:30N 47°53' W 122°29'3 5.4
2017-Aug-11 04:00N 47°55' W 122°31'3 6.0
2017-Aug-11 03:30N 47°57' W 122°35'4 6.9
2017-Aug-11 02:55N 48°01' W 122°38'6 5.5
2017-Aug-11 01:46N 48°07' W 122°42'4 1.1
2017-Aug-10 21:52N 48°06' W 122°48'0 0.0
2017-Aug-10 21:30N 48°06' W 122°48'0 0.0
2017-Aug-10 21:00N 48°06' W 122°48'0 0.0
2017-Aug-10 19:53N 48°06' W 122°48'0 0.0
2017-Aug-10 19:27N 48°06' W 122°48'0 0.0
2017-Aug-10 18:57N 48°06' W 122°48'0 0.0
2017-Aug-10 18:28N 48°06' W 122°48'0 0.0
2017-Aug-10 18:00N 48°06' W 122°48'0 0.0
2017-Aug-10 17:28N 48°06' W 122°48'0 0.0
2017-Aug-10 16:17N 48°06' W 122°48'0 0.0
2017-Aug-10 16:00N 48°06' W 122°48'0 0.0
2017-Aug-10 15:30N 48°06' W 122°48'0 0.0
2017-Aug-10 15:00N 48°06' W 122°48'0 0.0
2017-Aug-10 14:18N 48°06' W 122°48'0 0.0
2017-Aug-10 14:00N 48°06' W 122°48'0 0.0
2017-Aug-10 13:30N 48°06' W 122°48'0 0.0
2017-Aug-10 12:58N 48°06' W 122°48'0 0.0
2017-Aug-10 12:18N 48°06' W 122°48'0 0.0
2017-Aug-10 11:55N 48°06' W 122°48'0 0.0
2017-Aug-10 11:13N 48°06' W 122°48'0 0.0
2017-Aug-10 11:00N 48°06' W 122°48'0 0.0
2017-Aug-10 10:30N 48°06' W 122°48'0 0.0
2017-Aug-10 09:59N 48°06' W 122°48'0 0.0
2017-Aug-10 09:29N 48°06' W 122°48'1 1.5
2017-Aug-10 08:30N 48°06' W 122°45'4 6.5
2017-Aug-10 07:51N 48°06' W 122°39'4 9.6
2017-Aug-10 07:29N 48°03' W 122°38'5 9.8
2017-Aug-10 06:58N 47°58' W 122°34'4 9.2
2017-Aug-10 06:30N 47°56' W 122°29'4 8.5
2017-Aug-10 06:00N 47°52' W 122°28'4 8.1
2017-Aug-10 05:30N 47°48' W 122°26'4 8.1
2017-Aug-10 05:00N 47°44' W 122°26'4 8.2
2017-Aug-10 04:30N 47°40' W 122°27'4 7.4
2017-Aug-10 04:00N 47°37' W 122°24'2 4.3
2017-Aug-10 03:30N 47°35' W 122°22'1 1.6
2017-Aug-10 03:00N 47°34' W 122°22'  
Track history (hours):
 
Tides and Currents Weather Stations Pressure Air Temp Water Temp Dewpoint Dewpoint Depression Visibility Wind Speed Wind Dir Waves Ship Positions

Judi M.

Owner: MANKE TUG & BARGE CO INC, SHELTON, WA. More information available from US FCC via Universal Licensing System and Coast Guard Vessel Documentation Center.

Last reported at 2017-Aug-17 09:53 UTC. Time now 2017-Aug-21 21:43 UTC.
Position N 47°34' W 122°22'.

Length 29 m; draft 4 m.

Type: Tow > 200 m length. MMSI: 366740920.

Date/timePositionNaut miles runAvg speedWind from/ knotsBaromVisibWave heightAir tempDewpointWater temp
2017-Aug-17 09:53N 47°34' W 122°22'1 1.9
2017-Aug-17 09:31N 47°35' W 122°22'1 2.9
2017-Aug-17 09:00N 47°36' W 122°23'3 6.2
2017-Aug-17 08:31N 47°38' W 122°27'3 6.0
2017-Aug-17 08:01N 47°41' W 122°28'3 5.9
2017-Aug-17 07:31N 47°44' W 122°28'3 6.0
2017-Aug-17 07:00N 47°47' W 122°28'3 5.8
2017-Aug-17 06:31N 47°50' W 122°29'3 6.0
2017-Aug-17 06:01N 47°53' W 122°29'3 6.0
2017-Aug-17 05:31N 47°55' W 122°31'3 6.6
2017-Aug-17 05:00N 47°57' W 122°35'3 6.3
2017-Aug-17 04:30N 48°00' W 122°38'5 6.3
2017-Aug-17 03:47N 48°04' W 122°40'2 6.7
2017-Aug-17 03:29N 48°06' W 122°41'5 5.3
2017-Aug-17 02:35N 48°06' W 122°48'0 0.0
2017-Aug-17 01:25N 48°06' W 122°48'3 0.2
2017-Aug-16 08:22N 48°07' W 122°43'3 8.0
2017-Aug-16 08:00N 48°06' W 122°39'4 8.8
2017-Aug-16 07:30N 48°02' W 122°37'4 7.7
2017-Aug-16 07:00N 47°59' W 122°35'4 8.4
2017-Aug-16 06:31N 47°56' W 122°30'4 7.2
2017-Aug-16 06:00N 47°53' W 122°28'4 7.6
2017-Aug-16 05:31N 47°49' W 122°26'4 7.7
2017-Aug-16 05:01N 47°45' W 122°25'4 7.5
2017-Aug-16 04:30N 47°42' W 122°27'3 6.6
2017-Aug-16 04:01N 47°38' W 122°26'4 7.4
2017-Aug-16 03:31N 47°36' W 122°22'  
2017-Aug-11 08:44N 47°34' W 122°22'0 0.0
2017-Aug-11 08:30N 47°34' W 122°22'1 2.4
2017-Aug-11 08:00N 47°36' W 122°22'2 4.7
2017-Aug-11 07:30N 47°37' W 122°25'3 5.6
2017-Aug-11 07:00N 47°39' W 122°28'3 5.5
2017-Aug-11 06:30N 47°42' W 122°28'3 5.6
2017-Aug-11 06:00N 47°44' W 122°27'3 5.8
2017-Aug-11 05:30N 47°47' W 122°28'3 6.3
2017-Aug-11 05:00N 47°50' W 122°28'3 5.5
2017-Aug-11 04:30N 47°53' W 122°29'3 5.4
2017-Aug-11 04:00N 47°55' W 122°31'3 6.0
2017-Aug-11 03:30N 47°57' W 122°35'4 6.9
2017-Aug-11 02:55N 48°01' W 122°38'6 5.5
2017-Aug-11 01:46N 48°07' W 122°42'4 1.1
2017-Aug-10 21:52N 48°06' W 122°48'0 0.0
2017-Aug-10 21:30N 48°06' W 122°48'0 0.0
2017-Aug-10 21:00N 48°06' W 122°48'0 0.0
2017-Aug-10 19:53N 48°06' W 122°48'0 0.0
2017-Aug-10 19:27N 48°06' W 122°48'0 0.0
2017-Aug-10 18:57N 48°06' W 122°48'0 0.0
2017-Aug-10 18:28N 48°06' W 122°48'0 0.0
2017-Aug-10 18:00N 48°06' W 122°48'0 0.0
2017-Aug-10 17:28N 48°06' W 122°48'0 0.0
2017-Aug-10 16:17N 48°06' W 122°48'0 0.0
2017-Aug-10 16:00N 48°06' W 122°48'0 0.0
2017-Aug-10 15:30N 48°06' W 122°48'0 0.0
2017-Aug-10 15:00N 48°06' W 122°48'0 0.0
2017-Aug-10 14:18N 48°06' W 122°48'0 0.0
2017-Aug-10 14:00N 48°06' W 122°48'0 0.0
2017-Aug-10 13:30N 48°06' W 122°48'0 0.0
2017-Aug-10 12:58N 48°06' W 122°48'0 0.0
2017-Aug-10 12:18N 48°06' W 122°48'0 0.0
2017-Aug-10 11:55N 48°06' W 122°48'0 0.0
2017-Aug-10 11:13N 48°06' W 122°48'0 0.0
2017-Aug-10 11:00N 48°06' W 122°48'0 0.0
2017-Aug-10 10:30N 48°06' W 122°48'0 0.0
2017-Aug-10 09:59N 48°06' W 122°48'0 0.0
2017-Aug-10 09:29N 48°06' W 122°48'1 1.5
2017-Aug-10 08:30N 48°06' W 122°45'4 6.5
2017-Aug-10 07:51N 48°06' W 122°39'4 9.6
2017-Aug-10 07:29N 48°03' W 122°38'5 9.8
2017-Aug-10 06:58N 47°58' W 122°34'4 9.2
2017-Aug-10 06:30N 47°56' W 122°29'4 8.5
2017-Aug-10 06:00N 47°52' W 122°28'4 8.1
2017-Aug-10 05:30N 47°48' W 122°26'4 8.1
2017-Aug-10 05:00N 47°44' W 122°26'4 8.2
2017-Aug-10 04:30N 47°40' W 122°27'4 7.4
2017-Aug-10 04:00N 47°37' W 122°24'2 4.3
2017-Aug-10 03:30N 47°35' W 122°22'1 1.6
2017-Aug-10 03:00N 47°34' W 122°22'  

Dump ship's entire track history